Electra, TX

11:51 PM CST on November 22, 2014 (GMT -0600)
Frederick Municipal | Change Station
CLOSE
Current Station
Airport
Location: Frederick,
Elevation: 1253 ft
Nearby Weather Stations

Elev 1253 ft 34.35 °N, 98.98 °W | Updated 20 minutes ago

Fog
Fog
49 °F
Feels Like 49 °F
N
5
Wind Variable Wind from SSW

Today
High -- | Low -- °F
--% Chance of Precip.
Yesterday
High -- | Low -- °F
Precip. -- in
7:14 AM 5:28 PM
New Moon, 1% visible
Pressure 29.64 in
Visibility 0.2 miles
Clouds
Dew Point 48 °F
Humidity 97%
Rainfall 1.23 in
Snow Depth Not available.
UV Not available.
Pollen .50 out of 12
Air Quality Not available.
Flu Activity Not available.
SPECI KFDR 230531Z AUTO 20004KT 1/4SM FG VV001 09/09 A2964 RMK AO2 RAE04 P0000 T00940089 $

More Conditions Fewer Conditions

Pressure 29.64 in
Visibility 0.2 miles
Clouds
Dew Point 48 °F
Humidity 97%
Rainfall 1.23 in
Snow Depth Not available.
UV Not available.
Pollen .50 out of 12
Air Quality Not available.
Flu Activity Not available.
SPECI KFDR 230531Z AUTO 20004KT 1/4SM FG VV001 09/09 A2964 RMK AO2 RAE04 P0000 T00940089 $

More Conditions Fewer Conditions

10-Day Weather Forecast

Almanac

Astronomy

Nov. 22, 2014 Rise Set
Actual Time
Civil Twilight
Nautical Twilight
Astronomical Twilight
Moon
Length of Visible Light
Length of Day
Tomorrow will be .
, % of the Moon is Illuminated

Today's Extremes

State Highs State Lows

Community

WunderPhotos

Upload Photos

1,773,017 photos uploaded!

WunderBlogs® & News

Nearby

Air Quality

  Air Quality AQ Index Pollutant
Not available.

Snow Depth

Station Depth Elevation

Earthquake Activity

City Distance Mag. Time & Date
Minimum magnitude displayed is 2.5.

Coastal Water Temperatures

Place Temperature

Nearby Weather Stations